createdAt,value
2017-11-21T00:01:12.443Z,85.90
2017-11-21T00:03:38.868Z,85.50
2017-11-21T00:06:05.257Z,86.00
2017-11-21T00:08:31.664Z,86.60
2017-11-21T00:10:58.092Z,86.80
2017-11-21T00:13:25.238Z,86.50
2017-11-21T00:15:51.636Z,86.50
2017-11-21T00:18:18.041Z,86.40
2017-11-21T00:20:44.473Z,86.40
2017-11-21T00:23:10.879Z,86.40
2017-11-21T00:25:37.278Z,86.20
2017-11-21T00:28:03.681Z,85.60
2017-11-21T00:30:30.105Z,85.40
2017-11-21T00:32:56.514Z,85.20
2017-11-21T00:35:22.921Z,85.20
2017-11-21T00:37:50.049Z,85.30
2017-11-21T00:40:16.469Z,85.10
2017-11-21T00:42:42.884Z,85.20
2017-11-21T00:45:09.337Z,85.10
2017-11-21T00:47:35.764Z,84.80
2017-11-21T00:50:02.221Z,84.80
2017-11-21T00:52:28.641Z,85.10
2017-11-21T00:54:55.104Z,85.30
2017-11-21T00:57:21.518Z,85.20
2017-11-21T00:59:48.659Z,85.60
2017-11-21T01:02:15.063Z,85.60
2017-11-21T01:04:41.496Z,86.00
2017-11-21T01:07:07.905Z,86.10
2017-11-21T01:09:34.322Z,86.30
2017-11-21T01:12:01.450Z,85.90
2017-11-21T01:14:28.614Z,86.10
2017-11-21T01:16:55.784Z,86.40
2017-11-21T01:19:22.195Z,86.40
2017-11-21T01:21:49.344Z,86.50
2017-11-21T01:24:16.483Z,86.20
2017-11-21T01:26:43.617Z,85.80
2017-11-21T01:29:10.806Z,86.40
2017-11-21T01:31:37.965Z,86.40
2017-11-21T01:34:04.387Z,86.40
2017-11-21T01:36:31.570Z,86.70
2017-11-21T01:38:57.975Z,86.70
2017-11-21T01:41:25.108Z,87.70
2017-11-21T01:43:52.241Z,87.60
2017-11-21T01:46:18.654Z,87.60
2017-11-21T01:48:45.062Z,88.10
2017-11-21T01:51:11.470Z,88.50
2017-11-21T01:53:37.841Z,88.80
2017-11-21T01:56:04.234Z,88.70
2017-11-21T01:58:30.688Z,88.60
2017-11-21T02:00:57.084Z,88.50
2017-11-21T02:03:24.241Z,88.90
2017-11-21T02:05:50.652Z,88.90
2017-11-21T02:08:17.068Z,88.80
2017-11-21T02:10:44.234Z,88.30
2017-11-21T02:13:11.397Z,87.80
2017-11-21T02:15:37.787Z,87.80
2017-11-21T02:18:04.201Z,87.90
2017-11-21T02:20:30.649Z,87.30
2017-11-21T02:22:57.112Z,87.90
2017-11-21T02:25:24.320Z,87.90
2017-11-21T02:27:50.777Z,87.30
2017-11-21T02:30:17.232Z,86.90
2017-11-21T02:32:43.668Z,86.70
2017-11-21T02:35:10.882Z,86.30
2017-11-21T02:37:37.293Z,86.30
2017-11-21T02:40:03.742Z,86.30
2017-11-21T02:42:30.213Z,86.90
2017-11-21T02:44:57.403Z,87.10
2017-11-21T02:47:23.828Z,87.10
2017-11-21T02:49:50.272Z,87.50
2017-11-21T02:52:16.741Z,87.30
2017-11-21T02:54:43.172Z,87.30
2017-11-21T02:57:09.592Z,87.30
2017-11-21T02:59:36.110Z,86.90
2017-11-21T03:02:02.554Z,87.00
2017-11-21T03:04:28.957Z,86.60
2017-11-21T03:06:56.114Z,87.00
2017-11-21T03:09:22.512Z,87.10
2017-11-21T03:11:48.949Z,86.60
2017-11-21T03:14:16.149Z,87.00
2017-11-21T03:16:42.639Z,87.00
2017-11-21T03:19:09.843Z,87.30
2017-11-21T03:21:48.651Z,87.40
2017-11-21T03:24:27.393Z,87.60
2017-11-21T03:27:21.053Z,87.20
2017-11-21T03:29:47.478Z,87.30
2017-11-21T03:32:14.702Z,87.30
2017-11-21T03:34:41.127Z,87.30
2017-11-21T03:37:08.334Z,87.00
2017-11-21T03:39:34.734Z,87.00
2017-11-21T03:42:01.127Z,86.90
2017-11-21T03:44:28.416Z,86.90
2017-11-21T03:46:54.844Z,86.50
2017-11-21T03:49:21.254Z,86.80
2017-11-21T03:51:48.404Z,86.40
2017-11-21T03:54:15.609Z,86.40
2017-11-21T03:56:42.009Z,86.40
2017-11-21T03:59:08.409Z,86.20
2017-11-21T04:01:34.836Z,86.20
2017-11-21T04:04:01.235Z,86.20
2017-11-21T04:06:27.682Z,86.70
2017-11-21T04:08:54.071Z,86.10
2017-11-21T04:11:20.494Z,86.50
2017-11-21T04:13:47.792Z,86.50
2017-11-21T04:16:14.216Z,86.50
2017-11-21T04:18:40.648Z,86.10
2017-11-21T04:21:07.076Z,86.40
2017-11-21T04:23:33.531Z,86.30
2017-11-21T04:25:59.959Z,86.50
2017-11-21T04:28:26.384Z,86.90
2017-11-21T04:30:52.832Z,87.00
2017-11-21T04:33:19.576Z,87.20
2017-11-21T04:35:46.004Z,87.20
2017-11-21T04:38:12.419Z,87.10
2017-11-21T04:40:38.979Z,86.90
2017-11-21T04:43:05.388Z,86.70
2017-11-21T04:45:31.817Z,87.00
2017-11-21T04:47:58.226Z,86.80
2017-11-21T04:50:24.632Z,87.20
2017-11-21T04:52:51.775Z,87.30
2017-11-21T04:55:18.963Z,87.30
2017-11-21T04:57:45.393Z,87.30
2017-11-21T05:00:11.834Z,87.30
2017-11-21T05:02:38.261Z,87.20
2017-11-21T05:05:04.689Z,86.70
2017-11-21T05:07:31.092Z,86.90
2017-11-21T05:09:58.239Z,86.20
2017-11-21T05:12:24.673Z,86.10
2017-11-21T05:14:51.852Z,86.40
2017-11-21T05:17:18.429Z,86.30
2017-11-21T05:19:44.840Z,86.20
2017-11-21T05:22:11.270Z,85.80
2017-11-21T05:24:37.668Z,86.10
2017-11-21T05:27:04.885Z,86.50
2017-11-21T05:29:31.304Z,86.50
2017-11-21T05:31:57.891Z,86.40
2017-11-21T05:34:24.314Z,86.10
2017-11-21T05:36:51.465Z,86.50
2017-11-21T05:39:17.905Z,86.40
2017-11-21T05:41:45.104Z,86.80
2017-11-21T05:44:11.525Z,86.80
2017-11-21T05:46:37.944Z,87.20
2017-11-21T05:49:04.365Z,87.50
2017-11-21T05:51:30.817Z,87.30
2017-11-21T05:53:57.238Z,87.20
2017-11-21T05:56:23.648Z,87.90
2017-11-21T05:58:50.139Z,86.80
2017-11-21T06:01:16.576Z,86.00
2017-11-21T06:03:42.991Z,86.30
2017-11-21T06:06:09.396Z,86.40
2017-11-21T06:08:35.790Z,86.60
2017-11-21T06:11:02.194Z,86.50
2017-11-21T06:13:28.637Z,86.30
2017-11-21T06:15:55.036Z,86.10
2017-11-21T06:18:21.436Z,86.90
2017-11-21T06:20:48.592Z,87.30
2017-11-21T06:23:15.747Z,87.70
2017-11-21T06:25:42.919Z,88.30
2017-11-21T06:28:09.395Z,88.20
2017-11-21T06:30:35.840Z,88.50
2017-11-21T06:33:02.236Z,88.80
2017-11-21T06:35:28.645Z,88.50
2017-11-21T06:37:55.040Z,88.20
2017-11-21T06:40:21.444Z,88.80
2017-11-21T06:42:47.827Z,89.40
2017-11-21T06:45:14.273Z,88.50
2017-11-21T06:47:40.720Z,88.40
2017-11-21T06:50:07.118Z,88.30
2017-11-21T06:52:34.292Z,89.20
2017-11-21T06:55:00.697Z,89.20
2017-11-21T06:57:28.281Z,90.10
2017-11-21T06:59:56.416Z,90.20
2017-11-21T07:02:23.639Z,90.50
2017-11-21T07:04:50.046Z,90.50
2017-11-21T07:07:16.457Z,90.40
2017-11-21T07:09:43.614Z,90.20
2017-11-21T07:12:10.019Z,90.20
2017-11-21T07:14:37.151Z,90.10
2017-11-21T07:17:03.578Z,90.10
2017-11-21T07:19:29.997Z,90.10
2017-11-21T07:21:56.449Z,90.20
2017-11-21T07:24:22.877Z,90.40
2017-11-21T07:26:49.311Z,90.20
2017-11-21T07:29:15.730Z,90.20
2017-11-21T07:31:42.201Z,90.20
2017-11-21T07:34:08.645Z,90.30
2017-11-21T07:36:35.793Z,90.20
2017-11-21T07:39:02.294Z,90.20
2017-11-21T07:41:28.717Z,90.40
2017-11-21T07:43:55.124Z,90.30
2017-11-21T07:46:21.534Z,90.20
2017-11-21T07:48:48.681Z,90.40
2017-11-21T07:51:15.868Z,90.40
2017-11-21T07:53:42.337Z,90.40
2017-11-21T07:56:08.739Z,90.60
2017-11-21T07:58:35.138Z,90.50
2017-11-21T08:01:01.550Z,90.50
2017-11-21T08:03:27.952Z,90.30
2017-11-21T08:05:54.416Z,90.30
2017-11-21T08:08:21.552Z,90.50
2017-11-21T08:10:47.984Z,90.50
2017-11-21T08:13:15.901Z,90.70
2017-11-21T08:15:42.327Z,90.70
2017-11-21T08:18:08.780Z,90.90
2017-11-21T08:20:35.195Z,91.00
2017-11-21T08:23:01.671Z,90.80
2017-11-21T08:25:28.092Z,90.60
2017-11-21T08:27:54.565Z,90.60
2017-11-21T08:30:21.749Z,90.40
2017-11-21T08:32:48.229Z,90.40
2017-11-21T08:35:14.706Z,90.10
2017-11-21T08:37:41.138Z,90.10
2017-11-21T08:40:08.271Z,90.10
2017-11-21T08:42:34.680Z,90.10
2017-11-21T08:45:02.608Z,90.90
2017-11-21T08:47:29.086Z,90.70
2017-11-21T08:49:55.450Z,90.60
2017-11-21T08:52:22.611Z,90.00
2017-11-21T08:54:48.999Z,90.00
2017-11-21T08:57:15.369Z,90.00
2017-11-21T08:59:41.781Z,90.00
2017-11-21T09:02:08.947Z,89.80
2017-11-21T09:04:36.076Z,89.90
2017-11-21T09:07:02.492Z,89.90
2017-11-21T09:09:30.365Z,90.20
2017-11-21T09:11:57.477Z,90.50
2017-11-21T09:14:23.881Z,90.50
2017-11-21T09:16:50.271Z,90.40
2017-11-21T09:19:18.131Z,90.40
2017-11-21T09:21:44.520Z,90.40
2017-11-21T09:24:10.908Z,90.30
2017-11-21T09:26:37.300Z,90.40
2017-11-21T09:29:03.709Z,90.20
2017-11-21T09:31:30.109Z,90.40
2017-11-21T09:33:57.277Z,90.50
2017-11-21T09:36:24.409Z,90.60
2017-11-21T09:38:50.796Z,90.60
2017-11-21T09:41:17.224Z,90.50
2017-11-21T09:43:43.633Z,90.60
2017-11-21T09:46:10.062Z,90.70
2017-11-21T09:48:37.203Z,90.50
2017-11-21T09:51:04.379Z,90.50
2017-11-21T09:53:31.511Z,90.60
2017-11-21T09:55:57.951Z,90.60
2017-11-21T09:58:25.079Z,90.60
2017-11-21T10:00:52.211Z,90.70
2017-11-21T10:03:19.417Z,90.90
2017-11-21T10:05:45.844Z,90.80
2017-11-21T10:08:13.056Z,90.60
2017-11-21T10:10:40.240Z,90.80
2017-11-21T10:13:06.657Z,90.50
2017-11-21T10:15:33.822Z,90.40
2017-11-21T10:18:00.249Z,90.40
2017-11-21T10:20:26.665Z,90.30
2017-11-21T10:22:53.844Z,90.50
2017-11-21T10:25:20.321Z,90.50
2017-11-21T10:27:46.720Z,90.50
2017-11-21T10:30:13.162Z,90.40
2017-11-21T10:32:40.023Z,90.40
2017-11-21T10:35:06.468Z,90.40
2017-11-21T10:37:32.879Z,90.60
2017-11-21T10:39:59.329Z,90.60
2017-11-21T10:42:26.493Z,90.60
2017-11-21T10:44:53.626Z,90.50
2017-11-21T10:47:21.545Z,90.50
2017-11-21T10:49:47.990Z,90.50
2017-11-21T10:52:14.406Z,90.50
2017-11-21T10:54:40.796Z,90.70
2017-11-21T10:57:07.247Z,90.70
2017-11-21T10:59:34.988Z,90.60
2017-11-21T11:02:01.423Z,90.80
2017-11-21T11:04:27.917Z,90.80
2017-11-21T11:06:54.393Z,90.80
2017-11-21T11:09:20.868Z,90.70
2017-11-21T11:11:47.296Z,90.40
2017-11-21T11:14:14.471Z,90.50
2017-11-21T11:16:40.921Z,90.50
2017-11-21T11:19:07.354Z,90.40
2017-11-21T11:21:33.834Z,90.40
2017-11-21T11:24:01.022Z,90.70
2017-11-21T11:26:27.442Z,90.70
2017-11-21T11:28:53.928Z,90.40
2017-11-21T11:31:20.383Z,90.40
2017-11-21T11:33:47.577Z,90.70
2017-11-21T11:36:13.992Z,90.70
2017-11-21T11:38:40.438Z,90.50
2017-11-21T11:41:06.861Z,90.40
2017-11-21T11:43:33.286Z,90.70
2017-11-21T11:45:59.720Z,90.70
2017-11-21T11:48:26.198Z,91.00
2017-11-21T11:50:52.667Z,90.90
2017-11-21T11:53:19.851Z,91.00
2017-11-21T11:55:46.305Z,91.00
2017-11-21T11:58:12.769Z,91.00
2017-11-21T12:00:39.236Z,91.10
2017-11-21T12:03:05.701Z,91.60
2017-11-21T12:05:32.173Z,91.30
2017-11-21T12:07:59.159Z,91.00
2017-11-21T12:10:25.653Z,91.10
2017-11-21T12:12:52.130Z,91.00
2017-11-21T12:15:18.629Z,90.90
2017-11-21T12:17:45.841Z,90.90
2017-11-21T12:20:12.313Z,90.90
2017-11-21T12:22:39.510Z,90.50
2017-11-21T12:25:05.936Z,90.50
2017-11-21T12:27:32.376Z,90.80
2017-11-21T12:29:58.821Z,90.60
2017-11-21T12:32:25.264Z,90.70
2017-11-21T12:34:51.700Z,90.40
2017-11-21T12:37:18.159Z,90.40
2017-11-21T12:39:45.484Z,90.80
2017-11-21T12:42:11.937Z,90.80
2017-11-21T12:44:38.389Z,91.00
2017-11-21T12:47:05.583Z,91.80
2017-11-21T12:49:32.011Z,91.50
2017-11-21T12:51:58.433Z,91.30
2017-11-21T12:54:24.888Z,91.70
2017-11-21T12:56:51.370Z,91.70
2017-11-21T12:59:18.561Z,91.00
2017-11-21T13:01:44.996Z,91.00
2017-11-21T13:04:11.435Z,90.80
2017-11-21T13:06:37.864Z,91.10
2017-11-21T13:09:04.301Z,91.00
2017-11-21T13:11:30.750Z,90.90
2017-11-21T13:13:57.242Z,90.70
2017-11-21T13:16:23.710Z,90.60
2017-11-21T13:18:50.187Z,90.60
2017-11-21T13:21:17.379Z,90.60
2017-11-21T13:23:43.814Z,90.60
2017-11-21T13:26:10.277Z,90.70
2017-11-21T13:28:38.196Z,90.30
2017-11-21T13:31:04.623Z,90.30
2017-11-21T13:33:31.793Z,90.60
2017-11-21T13:35:58.231Z,90.60
2017-11-21T13:38:24.718Z,90.60
2017-11-21T13:40:51.160Z,90.80
2017-11-21T13:43:18.401Z,91.00
2017-11-21T13:45:45.606Z,90.80
2017-11-21T13:48:12.052Z,90.80
2017-11-21T13:50:38.568Z,90.60
2017-11-21T13:53:05.012Z,90.40
2017-11-21T13:55:31.489Z,90.30
2017-11-21T13:57:58.641Z,90.80
2017-11-21T14:00:25.885Z,90.30
2017-11-21T14:02:52.360Z,90.30
2017-11-21T14:05:33.759Z,90.50
2017-11-21T14:08:00.248Z,90.30
2017-11-21T14:10:26.734Z,90.00
2017-11-21T14:12:53.206Z,90.30
2017-11-21T14:15:20.448Z,90.20
2017-11-21T14:17:46.910Z,90.20
2017-11-21T14:20:14.132Z,90.30
2017-11-21T14:22:40.627Z,90.30
2017-11-21T14:25:07.135Z,90.70
2017-11-21T14:27:34.379Z,90.50
2017-11-21T14:30:01.597Z,90.80
2017-11-21T14:32:28.130Z,90.80
2017-11-21T14:34:54.608Z,90.60
2017-11-21T14:37:21.816Z,90.60
2017-11-21T14:39:49.055Z,90.60
2017-11-21T14:42:15.546Z,90.60
2017-11-21T14:44:42.037Z,90.70
2017-11-21T14:47:08.489Z,90.80
2017-11-21T14:49:34.916Z,90.80
2017-11-21T14:52:01.355Z,90.70
2017-11-21T14:54:27.801Z,90.80
2017-11-21T14:56:54.987Z,90.80
2017-11-21T14:59:21.435Z,90.60
2017-11-21T15:01:48.094Z,90.80
2017-11-21T15:04:14.521Z,90.70
2017-11-21T15:06:40.939Z,90.50
2017-11-21T15:09:07.594Z,90.70
2017-11-21T15:11:37.586Z,90.80
2017-11-21T15:14:04.022Z,90.70
2017-11-21T15:16:30.496Z,90.60
2017-11-21T15:18:57.043Z,90.60
2017-11-21T15:21:24.230Z,90.80
2017-11-21T15:23:50.715Z,90.80
2017-11-21T15:26:17.290Z,90.80
2017-11-21T15:28:43.768Z,90.80
2017-11-21T15:31:10.205Z,90.80
2017-11-21T15:33:37.405Z,90.40
2017-11-21T15:36:03.845Z,90.40
2017-11-21T15:38:30.253Z,90.50
2017-11-21T15:40:57.431Z,90.70
2017-11-21T15:43:23.862Z,90.70
2017-11-21T15:45:50.353Z,90.70
2017-11-21T15:48:16.763Z,90.80
2017-11-21T15:50:43.220Z,90.80
2017-11-21T15:53:10.405Z,90.30
2017-11-21T15:55:36.837Z,90.50
2017-11-21T15:58:03.336Z,90.40
2017-11-21T16:00:30.521Z,90.30
2017-11-21T16:02:56.943Z,90.30
2017-11-21T16:05:24.082Z,90.70
2017-11-21T16:07:51.252Z,90.60
2017-11-21T16:10:17.684Z,90.60
2017-11-21T16:12:44.147Z,90.70
2017-11-21T16:15:10.659Z,90.70
2017-11-21T16:17:37.060Z,90.50
2017-11-21T16:20:03.710Z,90.70
2017-11-21T16:22:30.906Z,90.70
2017-11-21T16:24:57.338Z,90.70
2017-11-21T16:27:23.772Z,90.80
2017-11-21T16:29:50.198Z,91.00
2017-11-21T16:32:16.593Z,90.80
2017-11-21T16:34:43.823Z,90.50
2017-11-21T16:37:11.044Z,90.60
2017-11-21T16:39:37.462Z,90.60
2017-11-21T16:42:03.885Z,90.40
2017-11-21T16:44:30.565Z,90.30
2017-11-21T16:46:56.943Z,90.10
2017-11-21T16:49:24.061Z,90.60
2017-11-21T16:51:50.469Z,90.60
2017-11-21T16:54:16.984Z,90.60
2017-11-21T16:56:43.416Z,90.50
2017-11-21T16:59:09.812Z,90.30
2017-11-21T17:01:36.996Z,90.60
2017-11-21T17:04:03.423Z,90.60
2017-11-21T17:06:29.842Z,90.50
2017-11-21T17:08:56.293Z,90.50
2017-11-21T17:11:22.706Z,90.60
2017-11-21T17:13:49.142Z,90.80
2017-11-21T17:16:15.586Z,90.70
2017-11-21T17:18:42.016Z,90.70
2017-11-21T17:21:09.421Z,90.90
2017-11-21T17:23:37.341Z,90.50
2017-11-21T17:26:04.553Z,90.60
2017-11-21T17:28:31.712Z,90.70
2017-11-21T17:30:58.854Z,90.70
2017-11-21T17:33:25.996Z,91.20
2017-11-21T17:35:53.154Z,91.10
2017-11-21T17:38:19.777Z,91.10
2017-11-21T17:40:46.258Z,91.10
2017-11-21T17:43:12.720Z,90.80
2017-11-21T17:45:39.129Z,90.80
2017-11-21T17:48:05.570Z,90.60
2017-11-21T17:50:32.004Z,90.70
2017-11-21T17:52:58.469Z,90.30
2017-11-21T17:55:25.644Z,90.70
2017-11-21T17:57:52.049Z,90.70
2017-11-21T18:00:19.969Z,90.70
2017-11-21T18:02:47.387Z,90.70
2017-11-21T18:05:13.881Z,90.90
2017-11-21T18:07:40.332Z,91.00
2017-11-21T18:10:08.262Z,91.10
2017-11-21T18:12:34.672Z,91.00
2017-11-21T18:15:01.870Z,91.20
2017-11-21T18:17:28.300Z,91.20
2017-11-21T18:19:54.748Z,91.30
2017-11-21T18:22:21.137Z,91.20
2017-11-21T18:24:47.635Z,91.10
2017-11-21T18:27:14.057Z,91.00
2017-11-21T18:29:40.495Z,91.20
2017-11-21T18:32:08.384Z,91.00
2017-11-21T18:34:35.521Z,91.00
2017-11-21T18:37:02.689Z,91.30
2017-11-21T18:39:29.156Z,91.30
2017-11-21T18:41:55.560Z,91.20
2017-11-21T18:44:22.728Z,91.40
2017-11-21T18:46:49.135Z,91.40
2017-11-21T18:49:16.279Z,91.40
2017-11-21T18:51:43.423Z,91.70
2017-11-21T18:54:09.808Z,91.40
2017-11-21T18:56:36.228Z,91.50
2017-11-21T18:59:02.687Z,91.30
2017-11-21T19:01:29.117Z,91.20
2017-11-21T19:03:55.561Z,91.10
2017-11-21T19:06:27.785Z,91.10
2017-11-21T19:08:54.244Z,91.10
2017-11-21T19:11:20.663Z,91.20
2017-11-21T19:13:47.107Z,91.20
2017-11-21T19:16:13.522Z,91.00
2017-11-21T19:18:39.962Z,90.80
2017-11-21T19:21:06.394Z,90.70
2017-11-21T19:23:32.796Z,91.10
2017-11-21T19:25:59.919Z,91.40
2017-11-21T19:28:26.373Z,91.30
2017-11-21T19:30:53.498Z,91.20
2017-11-21T19:33:19.966Z,90.90
2017-11-21T19:35:47.135Z,90.90
2017-11-21T19:38:13.533Z,90.90
2017-11-21T19:40:39.956Z,90.90
2017-11-21T19:43:07.838Z,90.60
2017-11-21T19:45:34.212Z,90.60
2017-11-21T19:48:00.603Z,90.70
2017-11-21T19:50:27.768Z,90.60
2017-11-21T19:52:54.213Z,90.60
2017-11-21T19:55:21.225Z,90.50
2017-11-21T19:57:47.636Z,90.40
2017-11-21T20:00:14.025Z,90.50
2017-11-21T20:02:40.422Z,90.20
2017-11-21T20:05:06.845Z,90.50
2017-11-21T20:07:34.038Z,90.60
2017-11-21T20:10:00.467Z,90.60
2017-11-21T20:12:27.889Z,90.60
2017-11-21T20:14:54.288Z,90.50
2017-11-21T20:17:20.670Z,90.70
2017-11-21T20:19:47.781Z,90.60
2017-11-21T20:22:14.194Z,90.60
2017-11-21T20:24:40.606Z,90.70
2017-11-21T20:27:07.043Z,90.70
2017-11-21T20:29:33.620Z,90.80
2017-11-21T20:32:00.063Z,90.80
2017-11-21T20:34:28.003Z,90.60
2017-11-21T20:36:54.443Z,90.60
2017-11-21T20:39:20.853Z,90.40
2017-11-21T20:41:47.276Z,90.50
2017-11-21T20:44:13.707Z,90.50
2017-11-21T20:46:40.108Z,90.40
2017-11-21T20:49:07.313Z,90.50
2017-11-21T20:51:33.723Z,90.50
2017-11-21T20:54:00.180Z,90.70
2017-11-21T20:56:26.606Z,90.60
2017-11-21T20:58:53.029Z,90.50
2017-11-21T21:01:19.459Z,90.70
2017-11-21T21:03:45.884Z,90.80
2017-11-21T21:06:12.283Z,90.70
2017-11-21T21:08:38.687Z,90.70
2017-11-21T21:11:05.065Z,90.60
2017-11-21T21:13:32.217Z,90.90
2017-11-21T21:15:59.369Z,91.10
2017-11-21T21:18:26.496Z,91.30
2017-11-21T21:20:52.902Z,91.30
2017-11-21T21:23:19.319Z,91.10
2017-11-21T21:25:45.704Z,91.30
2017-11-21T21:28:13.770Z,91.20
2017-11-21T21:30:41.160Z,91.30
2017-11-21T21:33:07.555Z,91.30
2017-11-21T21:35:33.941Z,91.30
2017-11-21T21:38:00.369Z,91.10
2017-11-21T21:40:26.771Z,91.00
2017-11-21T21:42:53.932Z,90.70
2017-11-21T21:45:20.382Z,90.70
2017-11-21T21:47:46.771Z,90.70
2017-11-21T21:50:13.923Z,90.50
2017-11-21T21:52:40.357Z,90.20
2017-11-21T21:55:07.539Z,90.60
2017-11-21T21:57:35.700Z,90.40
2017-11-21T22:00:03.024Z,90.40
2017-11-21T22:02:29.481Z,90.30
2017-11-21T22:04:56.615Z,90.20
2017-11-21T22:07:23.014Z,90.30
2017-11-21T22:09:49.473Z,90.20
2017-11-21T22:12:15.884Z,90.10
2017-11-21T22:14:42.319Z,90.30
2017-11-21T22:17:08.721Z,90.20
2017-11-21T22:19:35.081Z,90.20
2017-11-21T22:22:01.482Z,90.30
2017-11-21T22:24:28.617Z,90.30
2017-11-21T22:26:55.751Z,90.10
2017-11-21T22:29:22.886Z,90.20
2017-11-21T22:31:49.292Z,90.20
2017-11-21T22:34:15.764Z,90.20
2017-11-21T22:36:42.894Z,90.30
2017-11-21T22:39:09.298Z,90.30
2017-11-21T22:41:35.698Z,90.40
2017-11-21T22:44:02.102Z,90.40
2017-11-21T22:46:29.226Z,90.00
2017-11-21T22:48:55.632Z,89.50
2017-11-21T22:51:22.056Z,89.00
2017-11-21T22:53:48.496Z,88.50
2017-11-21T22:56:14.936Z,88.70
2017-11-21T22:58:41.339Z,89.20
2017-11-21T23:01:07.776Z,89.20
2017-11-21T23:03:34.188Z,89.20
2017-11-21T23:06:01.348Z,89.60
2017-11-21T23:08:28.495Z,89.20
2017-11-21T23:10:55.651Z,88.80
2017-11-21T23:13:22.836Z,88.90
2017-11-21T23:15:49.262Z,88.90
2017-11-21T23:18:15.665Z,88.80
2017-11-21T23:20:42.844Z,89.50
2017-11-21T23:23:09.261Z,89.50
2017-11-21T23:25:35.693Z,89.00
2017-11-21T23:28:02.118Z,88.70
2017-11-21T23:30:28.541Z,88.50
2017-11-21T23:32:55.704Z,88.30
2017-11-21T23:35:22.141Z,88.30
2017-11-21T23:37:49.213Z,88.20
2017-11-21T23:40:15.615Z,88.40
2017-11-21T23:42:42.012Z,88.90
2017-11-21T23:45:09.873Z,89.10
2017-11-21T23:47:36.984Z,89.50
2017-11-21T23:50:03.395Z,89.50
2017-11-21T23:52:29.812Z,89.20
2017-11-21T23:54:56.944Z,88.90
2017-11-21T23:57:23.332Z,88.90
2017-11-21T23:59:49.701Z,89.00
